createdAt,value
2018-12-20T13:22:37.324Z,95528.48
2018-12-20T13:25:06.600Z,95527.85
2018-12-20T13:27:36.145Z,95525.58
2018-12-20T13:31:43.969Z,95534.55
2018-12-20T13:34:12.553Z,95533.72
2018-12-20T17:35:11.152Z,95645.32
2018-12-20T17:37:39.884Z,95641.00
2018-12-20T17:40:08.830Z,95644.65
2018-12-20T17:42:37.517Z,95640.72
2018-12-20T17:45:07.775Z,95640.89
2018-12-20T17:47:36.603Z,95640.72
2018-12-20T17:50:07.455Z,95638.97
2018-12-20T17:52:36.066Z,95640.73
2018-12-20T17:55:05.629Z,95645.33
2018-12-20T17:57:34.418Z,95648.65
2018-12-20T18:00:03.283Z,95650.48
2018-12-20T18:02:31.944Z,95643.77
2018-12-20T18:05:06.920Z,95643.69
2018-12-20T18:07:31.412Z,95644.44
2018-12-20T18:10:01.081Z,95651.10
2018-12-20T18:12:29.891Z,95660.73
2018-12-20T18:14:59.764Z,95661.70
2018-12-20T18:17:28.511Z,95659.15
2018-12-20T18:19:57.450Z,95657.80
2018-12-20T18:22:26.799Z,95652.99
2018-12-20T18:24:55.777Z,95647.97
2018-12-20T18:27:24.414Z,95651.78
2018-12-20T18:29:53.043Z,95645.42
2018-12-20T18:32:21.805Z,95637.98
2018-12-20T18:34:50.520Z,95632.38
2018-12-20T18:37:19.169Z,95629.31
2018-12-20T18:39:47.866Z,95639.52
2018-12-20T18:42:16.526Z,95654.05
2018-12-20T18:44:45.150Z,95664.17
2018-12-20T18:47:13.748Z,95662.30
2018-12-20T18:49:47.479Z,95652.93
2018-12-20T18:52:16.255Z,95661.02
2018-12-20T18:54:44.957Z,95664.39
2018-12-20T18:57:13.646Z,95657.39
2018-12-20T18:59:42.724Z,95657.25
2018-12-20T19:02:11.567Z,95658.13
2018-12-20T19:04:40.343Z,95670.23
2018-12-20T19:07:08.930Z,95673.08
2018-12-20T19:09:37.593Z,95674.67
2018-12-20T19:12:06.431Z,95662.20
2018-12-20T19:14:36.256Z,95658.61
2018-12-20T19:17:05.175Z,95660.34
2018-12-20T19:19:33.829Z,95666.41
2018-12-20T19:22:02.598Z,95671.07
2018-12-20T19:24:31.413Z,95677.95
2018-12-20T19:27:00.178Z,95673.31
2018-12-20T19:29:28.813Z,95677.63
2018-12-20T19:31:57.995Z,95664.22
2018-12-20T19:34:26.868Z,95668.12
2018-12-20T19:36:55.558Z,95669.41
2018-12-20T19:39:25.864Z,95663.63
2018-12-20T19:41:56.757Z,95666.94
2018-12-20T19:44:25.551Z,95666.40
2018-12-20T19:46:54.807Z,95672.13
2018-12-20T19:49:23.416Z,95683.50
2018-12-20T19:51:52.158Z,95687.67
2018-12-20T19:54:20.883Z,95688.88
2018-12-20T19:56:49.483Z,95687.80
2018-12-20T19:59:18.139Z,95692.13
2018-12-20T20:01:46.773Z,95688.54
2018-12-20T20:04:15.382Z,95688.28
2018-12-20T20:06:44.022Z,95696.19
2018-12-20T20:09:12.641Z,95694.79
2018-12-20T20:11:41.282Z,95690.44
2018-12-20T20:14:09.945Z,95687.65
2018-12-20T20:16:38.564Z,95687.34
2018-12-20T20:19:07.219Z,95689.51
2018-12-20T20:21:36.625Z,95689.86
2018-12-20T20:24:06.044Z,95682.72
2018-12-20T20:26:34.721Z,95693.33
2018-12-20T20:29:03.788Z,95690.59
2018-12-20T20:31:32.491Z,95686.50
2018-12-20T20:34:48.804Z,95691.48
2018-12-20T20:37:17.459Z,95694.11
2018-12-20T20:42:44.851Z,95698.74
2018-12-20T20:45:13.581Z,95705.00
2018-12-20T20:47:42.286Z,95702.87
2018-12-20T20:50:10.927Z,95706.77
2018-12-20T20:52:39.566Z,95702.09
2018-12-20T20:55:09.220Z,95696.92
2018-12-20T20:57:37.858Z,95695.77
2018-12-20T21:00:12.903Z,95695.49
2018-12-20T21:02:41.845Z,95696.03
2018-12-20T21:05:11.154Z,95688.89
2018-12-20T21:07:39.874Z,95692.02
2018-12-20T21:10:10.341Z,95700.66
2018-12-20T21:12:39.048Z,95696.19
2018-12-20T21:15:11.524Z,95695.23
2018-12-20T21:17:40.330Z,95697.84
2018-12-20T21:20:12.940Z,95699.74
2018-12-20T21:22:43.523Z,95695.11
2018-12-20T21:25:12.504Z,95693.72
2018-12-20T21:27:41.323Z,95691.59
2018-12-20T21:30:11.491Z,95694.84
2018-12-20T21:32:40.235Z,95690.47
2018-12-20T21:35:09.441Z,95695.69
2018-12-20T21:37:38.127Z,95694.61
2018-12-20T21:40:07.897Z,95686.77
2018-12-20T21:42:46.657Z,95682.95
2018-12-20T21:45:15.249Z,95689.09
2018-12-20T21:47:43.948Z,95691.59
2018-12-20T21:50:13.663Z,95681.52
2018-12-20T21:52:43.360Z,95681.91
2018-12-20T21:55:12.160Z,95685.03
2018-12-20T21:57:40.811Z,95686.84
2018-12-20T22:00:11.432Z,95679.09
2018-12-20T22:02:40.146Z,95687.58
2018-12-20T22:05:08.880Z,95693.64
2018-12-20T22:07:37.482Z,95690.71
2018-12-20T22:10:07.407Z,95691.51
2018-12-20T22:12:39.267Z,95689.01
2018-12-20T22:15:08.200Z,95696.05
2018-12-20T22:17:36.774Z,95701.27
2018-12-20T22:20:06.863Z,95696.45
2018-12-20T22:22:35.583Z,95695.36
2018-12-20T22:25:04.586Z,95696.98
2018-12-20T22:27:33.137Z,95702.61
2018-12-20T22:30:01.901Z,95706.28
2018-12-20T22:32:30.533Z,95700.64
2018-12-20T22:34:59.212Z,95678.92
2018-12-20T22:37:27.888Z,95674.14
2018-12-20T22:39:56.586Z,95675.22
2018-12-20T22:42:25.181Z,95679.55
2018-12-20T22:44:53.841Z,95679.30
2018-12-20T22:47:22.471Z,95673.95
2018-12-20T22:49:51.066Z,95674.45
2018-12-20T22:52:19.691Z,95674.88
2018-12-20T22:54:48.280Z,95672.14
2018-12-20T22:57:16.951Z,95671.56
2018-12-20T22:59:45.628Z,95673.99
2018-12-20T23:02:18.014Z,95669.20
2018-12-20T23:04:44.954Z,95670.75
2018-12-20T23:07:14.343Z,95666.14
2018-12-20T23:09:42.912Z,95667.46
2018-12-20T23:12:11.534Z,95676.88
2018-12-20T23:14:40.122Z,95678.70
2018-12-20T23:17:08.746Z,95671.75
2018-12-20T23:19:37.451Z,95666.84
2018-12-20T23:22:06.056Z,95663.38
2018-12-20T23:24:34.820Z,95668.35
2018-12-20T23:27:03.444Z,95680.73
2018-12-20T23:29:32.142Z,95682.05
2018-12-20T23:32:00.897Z,95662.37
2018-12-20T23:34:29.531Z,95665.64
2018-12-20T23:36:58.263Z,95663.43
2018-12-20T23:39:26.935Z,95659.46
2018-12-20T23:41:55.563Z,95658.05
2018-12-20T23:44:24.174Z,95666.77
2018-12-20T23:46:52.810Z,95666.11
2018-12-20T23:49:21.434Z,95669.67
2018-12-20T23:51:50.038Z,95665.06
2018-12-20T23:54:18.881Z,95666.64
2018-12-20T23:56:47.505Z,95666.84
